To NAV CANADA Home Page Login to a new session Search on AWWS site Feedback and Comments Disclaimer Vers la page française équivalente Tips FAQ What's new on the site To the Forecasts and Observations / NOTAM section To "File a Flight Plan" website Publications and other links Update of the User's profile FIC Telephone Numbers My Weather Data Folder Route Weather Data Regional Weather Data Local Weather Data To the Forecasts and Observations / NOTAM section
Request Generated 02/13/2016 at 04:20:34 UTC . Weather information available at that time is displayed.

METAR/TAF

CHURCHILL/MB    (show WxCam)

METAR CYYQ 130400Z 32013KT 15SM IC DRSN SKC M27/M31 A3044 RMK SLP315
DENSITY ALT MISG=
METAR CYYQ 130300Z 32015KT 15SM IC DRSN SKC M27/M31 A3045 RMK SLP318
DENSITY ALT MISG=
METAR CYYQ 130200Z 32016KT 15SM IC DRSN SKC M27/M31 A3045 RMK SLP319
DENSITY ALT MISG=

TAF CYYQ 122338Z 1300/1324 32015G25KT 6SM IC FEW015 SCT240 TEMPO
1300/1312 3SM IC BLSN
BECMG 1303/1305 30010KT
FM131200 23008KT P6SM BKN140
BECMG 1316/1318 21012KT
RMK NXT FCST BY 130600Z=
Your time UTC time
Weather data provided by Environment Canada and NAV CANADA